sensor_id;sensor_type;location;lat;lon;timestamp;temperature;humidity
29849;DHT22;16728;50.832;5.590;2023-07-31T00:01:31;17.90;99.90
29849;DHT22;16728;50.832;5.590;2023-07-31T00:04:34;17.90;99.90
29849;DHT22;16728;50.832;5.590;2023-07-31T00:07:36;17.80;99.90
29849;DHT22;16728;50.832;5.590;2023-07-31T00:10:37;17.80;99.90
29849;DHT22;16728;50.832;5.590;2023-07-31T00:13:39;17.90;99.90
29849;DHT22;16728;50.832;5.590;2023-07-31T00:16:41;17.80;99.90
29849;DHT22;16728;50.832;5.590;2023-07-31T00:19:44;17.90;99.90
29849;DHT22;16728;50.832;5.590;2023-07-31T00:22:47;17.90;99.90
29849;DHT22;16728;50.832;5.590;2023-07-31T00:25:50;17.90;99.90
29849;DHT22;16728;50.832;5.590;2023-07-31T00:28:52;17.90;99.90
29849;DHT22;16728;50.832;5.590;2023-07-31T00:31:54;17.90;99.90
29849;DHT22;16728;50.832;5.590;2023-07-31T00:34:56;17.90;99.90
29849;DHT22;16728;50.832;5.590;2023-07-31T00:37:58;17.90;99.90
29849;DHT22;16728;50.832;5.590;2023-07-31T00:41:00;17.90;99.90
29849;DHT22;16728;50.832;5.590;2023-07-31T00:44:02;17.90;99.90
29849;DHT22;16728;50.832;5.590;2023-07-31T00:47:05;17.90;99.90
29849;DHT22;16728;50.832;5.590;2023-07-31T00:50:07;17.90;99.90
29849;DHT22;16728;50.832;5.590;2023-07-31T00:53:09;17.80;99.90
29849;DHT22;16728;50.832;5.590;2023-07-31T00:56:12;17.90;99.90
29849;DHT22;16728;50.832;5.590;2023-07-31T00:59:14;17.90;99.90
29849;DHT22;16728;50.832;5.590;2023-07-31T01:02:17;17.90;99.90
29849;DHT22;16728;50.832;5.590;2023-07-31T01:05:25;17.90;99.90
29849;DHT22;16728;50.832;5.590;2023-07-31T01:12:04;17.90;99.90
29849;DHT22;16728;50.832;5.590;2023-07-31T01:15:09;17.90;99.90
29849;DHT22;16728;50.832;5.590;2023-07-31T01:18:15;18.00;99.90
29849;DHT22;16728;50.832;5.590;2023-07-31T01:28:56;18.00;99.90
29849;DHT22;16728;50.832;5.590;2023-07-31T01:32:02;18.00;99.90
29849;DHT22;16728;50.832;5.590;2023-07-31T01:35:05;18.00;99.90
29849;DHT22;16728;50.832;5.590;2023-07-31T01:38:08;17.90;99.90
29849;DHT22;16728;50.832;5.590;2023-07-31T01:41:09;18.00;99.90
29849;DHT22;16728;50.832;5.590;2023-07-31T01:44:11;18.00;99.90
29849;DHT22;16728;50.832;5.590;2023-07-31T01:47:13;18.00;99.90
29849;DHT22;16728;50.832;5.590;2023-07-31T01:50:15;18.00;99.90
29849;DHT22;16728;50.832;5.590;2023-07-31T01:53:17;18.00;99.90
29849;DHT22;16728;50.832;5.590;2023-07-31T01:56:19;18.00;99.90
29849;DHT22;16728;50.832;5.590;2023-07-31T01:59:21;18.00;99.90
29849;DHT22;16728;50.832;5.590;2023-07-31T02:02:23;18.00;99.90
29849;DHT22;16728;50.832;5.590;2023-07-31T02:05:25;18.00;99.90
29849;DHT22;16728;50.832;5.590;2023-07-31T02:08:27;18.00;99.90
29849;DHT22;16728;50.832;5.590;2023-07-31T02:11:29;18.00;99.90
29849;DHT22;16728;50.832;5.590;2023-07-31T02:14:30;18.00;99.90
29849;DHT22;16728;50.832;5.590;2023-07-31T02:17:32;18.00;99.90
29849;DHT22;16728;50.832;5.590;2023-07-31T02:20:35;18.00;99.90
29849;DHT22;16728;50.832;5.590;2023-07-31T02:23:37;18.00;99.90
29849;DHT22;16728;50.832;5.590;2023-07-31T02:26:39;18.00;99.90
29849;DHT22;16728;50.832;5.590;2023-07-31T02:29:41;18.00;99.90
29849;DHT22;16728;50.832;5.590;2023-07-31T02:32:43;18.00;99.90
29849;DHT22;16728;50.832;5.590;2023-07-31T02:35:45;18.00;99.90
29849;DHT22;16728;50.832;5.590;2023-07-31T02:38:47;18.00;99.90
29849;DHT22;16728;50.832;5.590;2023-07-31T02:41:49;18.00;99.90
29849;DHT22;16728;50.832;5.590;2023-07-31T02:44:51;18.00;99.90
29849;DHT22;16728;50.832;5.590;2023-07-31T02:47:57;18.00;99.90
29849;DHT22;16728;50.832;5.590;2023-07-31T02:50:59;18.00;99.90
29849;DHT22;16728;50.832;5.590;2023-07-31T02:54:01;18.00;99.90
29849;DHT22;16728;50.832;5.590;2023-07-31T02:57:03;18.00;99.90
29849;DHT22;16728;50.832;5.590;2023-07-31T03:00:06;18.00;99.90
29849;DHT22;16728;50.832;5.590;2023-07-31T03:03:08;18.00;99.90
29849;DHT22;16728;50.832;5.590;2023-07-31T03:06:10;18.00;99.90
29849;DHT22;16728;50.832;5.590;2023-07-31T03:09:12;18.00;99.90
29849;DHT22;16728;50.832;5.590;2023-07-31T03:12:14;18.00;99.90
29849;DHT22;16728;50.832;5.590;2023-07-31T03:15:16;18.00;99.90
29849;DHT22;16728;50.832;5.590;2023-07-31T03:18:18;18.00;99.90
29849;DHT22;16728;50.832;5.590;2023-07-31T03:21:20;18.00;99.90
29849;DHT22;16728;50.832;5.590;2023-07-31T03:24:22;18.00;99.90
29849;DHT22;16728;50.832;5.590;2023-07-31T03:27:24;18.00;99.90
29849;DHT22;16728;50.832;5.590;2023-07-31T03:30:27;18.00;99.90
29849;DHT22;16728;50.832;5.590;2023-07-31T03:33:28;18.00;99.90
29849;DHT22;16728;50.832;5.590;2023-07-31T03:36:30;18.00;99.90
29849;DHT22;16728;50.832;5.590;2023-07-31T03:39:33;18.00;99.90
29849;DHT22;16728;50.832;5.590;2023-07-31T03:42:35;18.00;99.90
29849;DHT22;16728;50.832;5.590;2023-07-31T03:45:37;18.00;99.90
29849;DHT22;16728;50.832;5.590;2023-07-31T03:48:39;18.00;99.90
29849;DHT22;16728;50.832;5.590;2023-07-31T03:51:41;18.00;99.90
29849;DHT22;16728;50.832;5.590;2023-07-31T03:54:43;18.00;99.90
29849;DHT22;16728;50.832;5.590;2023-07-31T03:57:46;18.00;99.90
29849;DHT22;16728;50.832;5.590;2023-07-31T04:00:48;17.90;99.90
29849;DHT22;16728;50.832;5.590;2023-07-31T04:03:50;17.90;99.90
29849;DHT22;16728;50.832;5.590;2023-07-31T04:06:52;17.90;99.90
29849;DHT22;16728;50.832;5.590;2023-07-31T04:09:54;17.90;99.90
29849;DHT22;16728;50.832;5.590;2023-07-31T04:12:56;17.90;99.90
29849;DHT22;16728;50.832;5.590;2023-07-31T04:15:58;17.90;99.90
29849;DHT22;16728;50.832;5.590;2023-07-31T04:19:00;17.90;99.90
29849;DHT22;16728;50.832;5.590;2023-07-31T04:22:02;17.90;99.90
29849;DHT22;16728;50.832;5.590;2023-07-31T04:25:04;17.90;99.90
29849;DHT22;16728;50.832;5.590;2023-07-31T04:28:06;17.90;99.90
29849;DHT22;16728;50.832;5.590;2023-07-31T04:31:09;17.90;99.90
29849;DHT22;16728;50.832;5.590;2023-07-31T04:34:11;18.00;99.90
29849;DHT22;16728;50.832;5.590;2023-07-31T04:37:15;18.00;99.90
29849;DHT22;16728;50.832;5.590;2023-07-31T04:40:17;18.00;99.90
29849;DHT22;16728;50.832;5.590;2023-07-31T04:43:19;17.90;99.90
29849;DHT22;16728;50.832;5.590;2023-07-31T04:46:21;17.90;99.90
29849;DHT22;16728;50.832;5.590;2023-07-31T04:49:23;17.90;99.90
29849;DHT22;16728;50.832;5.590;2023-07-31T04:52:25;18.00;99.90
29849;DHT22;16728;50.832;5.590;2023-07-31T04:55:27;18.00;99.90
29849;DHT22;16728;50.832;5.590;2023-07-31T04:58:29;17.90;99.90
29849;DHT22;16728;50.832;5.590;2023-07-31T05:01:31;17.90;99.90
29849;DHT22;16728;50.832;5.590;2023-07-31T05:04:33;18.00;99.90
29849;DHT22;16728;50.832;5.590;2023-07-31T05:07:35;18.00;99.90
29849;DHT22;16728;50.832;5.590;2023-07-31T05:10:37;18.00;99.90
29849;DHT22;16728;50.832;5.590;2023-07-31T05:13:39;17.90;99.90
29849;DHT22;16728;50.832;5.590;2023-07-31T05:16:41;17.90;99.90
29849;DHT22;16728;50.832;5.590;2023-07-31T05:19:44;17.90;99.90
29849;DHT22;16728;50.832;5.590;2023-07-31T05:22:46;17.90;99.90
29849;DHT22;16728;50.832;5.590;2023-07-31T05:25:48;17.90;99.90
29849;DHT22;16728;50.832;5.590;2023-07-31T05:28:51;17.90;99.90
29849;DHT22;16728;50.832;5.590;2023-07-31T05:31:53;17.90;99.90
29849;DHT22;16728;50.832;5.590;2023-07-31T05:34:55;17.90;99.90
29849;DHT22;16728;50.832;5.590;2023-07-31T05:37:57;17.90;99.90
29849;DHT22;16728;50.832;5.590;2023-07-31T05:40:59;17.90;99.90
29849;DHT22;16728;50.832;5.590;2023-07-31T05:44:00;17.90;99.90
29849;DHT22;16728;50.832;5.590;2023-07-31T05:47:02;17.90;99.90
29849;DHT22;16728;50.832;5.590;2023-07-31T05:50:05;17.90;99.90
29849;DHT22;16728;50.832;5.590;2023-07-31T05:53:07;17.90;99.90
29849;DHT22;16728;50.832;5.590;2023-07-31T05:56:09;17.90;99.90
29849;DHT22;16728;50.832;5.590;2023-07-31T05:59:12;17.90;99.90
29849;DHT22;16728;50.832;5.590;2023-07-31T06:02:15;17.90;99.90
29849;DHT22;16728;50.832;5.590;2023-07-31T06:05:17;17.90;99.90
29849;DHT22;16728;50.832;5.590;2023-07-31T06:08:18;17.90;99.90
29849;DHT22;16728;50.832;5.590;2023-07-31T06:11:21;18.00;99.90
29849;DHT22;16728;50.832;5.590;2023-07-31T06:14:23;17.90;99.90
29849;DHT22;16728;50.832;5.590;2023-07-31T06:17:24;17.90;99.90
29849;DHT22;16728;50.832;5.590;2023-07-31T06:20:28;17.90;99.90
29849;DHT22;16728;50.832;5.590;2023-07-31T06:23:48;17.90;99.90
29849;DHT22;16728;50.832;5.590;2023-07-31T06:26:51;17.90;99.90
29849;DHT22;16728;50.832;5.590;2023-07-31T06:29:52;17.90;99.90
29849;DHT22;16728;50.832;5.590;2023-07-31T06:32:54;17.80;99.90
29849;DHT22;16728;50.832;5.590;2023-07-31T06:35:56;17.90;99.90
29849;DHT22;16728;50.832;5.590;2023-07-31T06:38:58;17.90;99.90
29849;DHT22;16728;50.832;5.590;2023-07-31T06:42:00;17.80;99.90
29849;DHT22;16728;50.832;5.590;2023-07-31T06:45:02;17.80;99.90
29849;DHT22;16728;50.832;5.590;2023-07-31T06:48:05;17.70;99.90
29849;DHT22;16728;50.832;5.590;2023-07-31T06:51:07;17.70;99.90
29849;DHT22;16728;50.832;5.590;2023-07-31T06:54:09;17.70;99.90
29849;DHT22;16728;50.832;5.590;2023-07-31T06:57:11;17.60;99.90
29849;DHT22;16728;50.832;5.590;2023-07-31T07:00:13;17.60;99.90
29849;DHT22;16728;50.832;5.590;2023-07-31T07:03:16;17.60;99.90
29849;DHT22;16728;50.832;5.590;2023-07-31T07:06:18;17.70;99.90
29849;DHT22;16728;50.832;5.590;2023-07-31T07:09:19;17.60;99.90
29849;DHT22;16728;50.832;5.590;2023-07-31T07:12:21;17.60;99.90
29849;DHT22;16728;50.832;5.590;2023-07-31T07:15:23;17.60;99.90
29849;DHT22;16728;50.832;5.590;2023-07-31T07:18:26;17.60;99.90
29849;DHT22;16728;50.832;5.590;2023-07-31T07:21:27;17.60;99.90
29849;DHT22;16728;50.832;5.590;2023-07-31T07:24:30;17.60;99.90
29849;DHT22;16728;50.832;5.590;2023-07-31T07:27:32;17.70;99.90
29849;DHT22;16728;50.832;5.590;2023-07-31T07:30:34;17.70;99.90
29849;DHT22;16728;50.832;5.590;2023-07-31T07:33:36;17.70;99.90
29849;DHT22;16728;50.832;5.590;2023-07-31T07:36:38;17.70;99.90
29849;DHT22;16728;50.832;5.590;2023-07-31T07:39:41;17.70;99.90
29849;DHT22;16728;50.832;5.590;2023-07-31T07:42:43;17.70;99.90
29849;DHT22;16728;50.832;5.590;2023-07-31T07:45:45;17.70;99.90
29849;DHT22;16728;50.832;5.590;2023-07-31T07:48:46;17.70;99.90
29849;DHT22;16728;50.832;5.590;2023-07-31T07:51:49;17.70;99.90
29849;DHT22;16728;50.832;5.590;2023-07-31T07:54:51;17.80;99.90
29849;DHT22;16728;50.832;5.590;2023-07-31T07:57:53;17.80;99.90
29849;DHT22;16728;50.832;5.590;2023-07-31T08:00:55;17.90;99.90
29849;DHT22;16728;50.832;5.590;2023-07-31T08:03:58;17.80;99.90
29849;DHT22;16728;50.832;5.590;2023-07-31T08:07:00;17.80;99.90
29849;DHT22;16728;50.832;5.590;2023-07-31T08:10:02;17.80;99.90
29849;DHT22;16728;50.832;5.590;2023-07-31T08:13:04;17.80;99.90
29849;DHT22;16728;50.832;5.590;2023-07-31T08:16:06;17.80;99.90
29849;DHT22;16728;50.832;5.590;2023-07-31T08:19:08;17.90;99.90
29849;DHT22;16728;50.832;5.590;2023-07-31T08:22:10;17.90;99.90
29849;DHT22;16728;50.832;5.590;2023-07-31T08:25:12;17.80;99.90
29849;DHT22;16728;50.832;5.590;2023-07-31T08:28:14;17.80;99.90
29849;DHT22;16728;50.832;5.590;2023-07-31T08:31:17;17.90;99.90
29849;DHT22;16728;50.832;5.590;2023-07-31T08:34:20;17.90;99.90
29849;DHT22;16728;50.832;5.590;2023-07-31T08:37:22;17.90;99.90
29849;DHT22;16728;50.832;5.590;2023-07-31T08:40:24;17.90;99.90
29849;DHT22;16728;50.832;5.590;2023-07-31T08:43:26;17.90;99.90
29849;DHT22;16728;50.832;5.590;2023-07-31T08:46:28;17.90;99.90
29849;DHT22;16728;50.832;5.590;2023-07-31T08:49:31;17.90;99.90
29849;DHT22;16728;50.832;5.590;2023-07-31T08:52:34;17.90;99.90
29849;DHT22;16728;50.832;5.590;2023-07-31T08:55:37;18.00;99.90
29849;DHT22;16728;50.832;5.590;2023-07-31T08:58:40;18.00;99.90
29849;DHT22;16728;50.832;5.590;2023-07-31T09:01:44;18.00;99.90
29849;DHT22;16728;50.832;5.590;2023-07-31T09:04:50;18.00;99.90
29849;DHT22;16728;50.832;5.590;2023-07-31T09:07:53;18.10;99.90
29849;DHT22;16728;50.832;5.590;2023-07-31T09:11:02;18.10;99.90
29849;DHT22;16728;50.832;5.590;2023-07-31T09:14:05;18.10;99.90
29849;DHT22;16728;50.832;5.590;2023-07-31T09:17:10;18.10;99.90
29849;DHT22;16728;50.832;5.590;2023-07-31T09:20:19;18.10;99.90
29849;DHT22;16728;50.832;5.590;2023-07-31T09:23:22;18.10;99.90
29849;DHT22;16728;50.832;5.590;2023-07-31T09:26:35;18.10;99.90
29849;DHT22;16728;50.832;5.590;2023-07-31T09:29:38;18.10;99.90
29849;DHT22;16728;50.832;5.590;2023-07-31T09:32:40;18.00;99.90
29849;DHT22;16728;50.832;5.590;2023-07-31T09:35:42;18.10;99.90
29849;DHT22;16728;50.832;5.590;2023-07-31T09:38:44;18.00;99.90
29849;DHT22;16728;50.832;5.590;2023-07-31T09:41:53;18.00;99.90
29849;DHT22;16728;50.832;5.590;2023-07-31T09:45:09;18.00;99.90
29849;DHT22;16728;50.832;5.590;2023-07-31T09:48:13;18.00;99.90
29849;DHT22;16728;50.832;5.590;2023-07-31T09:51:26;18.00;99.90
29849;DHT22;16728;50.832;5.590;2023-07-31T09:54:28;18.10;99.90
29849;DHT22;16728;50.832;5.590;2023-07-31T09:57:31;18.10;99.90
29849;DHT22;16728;50.832;5.590;2023-07-31T10:00:33;18.10;99.90
29849;DHT22;16728;50.832;5.590;2023-07-31T10:03:37;18.10;99.90
29849;DHT22;16728;50.832;5.590;2023-07-31T10:06:40;18.10;99.90
29849;DHT22;16728;50.832;5.590;2023-07-31T10:09:42;18.20;99.90
29849;DHT22;16728;50.832;5.590;2023-07-31T10:12:46;18.20;99.90
29849;DHT22;16728;50.832;5.590;2023-07-31T10:15:48;18.30;99.90
29849;DHT22;16728;50.832;5.590;2023-07-31T10:18:51;18.30;99.90
29849;DHT22;16728;50.832;5.590;2023-07-31T10:21:55;18.30;99.90
29849;DHT22;16728;50.832;5.590;2023-07-31T10:24:59;18.40;99.90
29849;DHT22;16728;50.832;5.590;2023-07-31T10:28:01;18.40;99.90
29849;DHT22;16728;50.832;5.590;2023-07-31T10:31:04;18.40;99.90
29849;DHT22;16728;50.832;5.590;2023-07-31T10:34:06;18.50;99.90
29849;DHT22;16728;50.832;5.590;2023-07-31T10:37:22;18.60;99.90
29849;DHT22;16728;50.832;5.590;2023-07-31T10:40:26;18.60;99.90
29849;DHT22;16728;50.832;5.590;2023-07-31T10:43:29;18.70;99.90
29849;DHT22;16728;50.832;5.590;2023-07-31T10:46:32;18.70;99.90
29849;DHT22;16728;50.832;5.590;2023-07-31T10:49:34;18.70;99.90
29849;DHT22;16728;50.832;5.590;2023-07-31T10:52:36;18.70;99.90
29849;DHT22;16728;50.832;5.590;2023-07-31T10:55:42;18.70;99.90
29849;DHT22;16728;50.832;5.590;2023-07-31T10:59:00;18.70;99.90
29849;DHT22;16728;50.832;5.590;2023-07-31T11:02:05;18.70;99.90
29849;DHT22;16728;50.832;5.590;2023-07-31T11:08:51;18.80;99.90
29849;DHT22;16728;50.832;5.590;2023-07-31T11:11:54;18.80;99.90
29849;DHT22;16728;50.832;5.590;2023-07-31T11:14:57;18.80;99.90
29849;DHT22;16728;50.832;5.590;2023-07-31T11:18:00;18.80;99.90
29849;DHT22;16728;50.832;5.590;2023-07-31T11:21:05;18.80;99.90
29849;DHT22;16728;50.832;5.590;2023-07-31T11:24:08;18.80;99.90
29849;DHT22;16728;50.832;5.590;2023-07-31T11:27:10;18.80;99.90
29849;DHT22;16728;50.832;5.590;2023-07-31T11:30:12;18.80;99.90
29849;DHT22;16728;50.832;5.590;2023-07-31T11:33:14;18.90;99.90
29849;DHT22;16728;50.832;5.590;2023-07-31T11:36:18;18.90;99.90
29849;DHT22;16728;50.832;5.590;2023-07-31T11:39:20;18.90;99.90
29849;DHT22;16728;50.832;5.590;2023-07-31T11:42:22;19.00;99.90
29849;DHT22;16728;50.832;5.590;2023-07-31T11:45:27;19.00;99.90
29849;DHT22;16728;50.832;5.590;2023-07-31T11:48:31;19.00;99.90
29849;DHT22;16728;50.832;5.590;2023-07-31T11:51:38;19.00;99.90
29849;DHT22;16728;50.832;5.590;2023-07-31T11:54:40;19.00;99.90
29849;DHT22;16728;50.832;5.590;2023-07-31T11:57:43;19.00;99.90
29849;DHT22;16728;50.832;5.590;2023-07-31T12:00:47;19.00;99.90
29849;DHT22;16728;50.832;5.590;2023-07-31T12:03:50;19.00;99.90
29849;DHT22;16728;50.832;5.590;2023-07-31T12:06:53;19.10;99.90
29849;DHT22;16728;50.832;5.590;2023-07-31T12:09:59;19.20;99.90
29849;DHT22;16728;50.832;5.590;2023-07-31T12:13:04;19.30;99.90
29849;DHT22;16728;50.832;5.590;2023-07-31T12:16:06;19.40;99.90
29849;DHT22;16728;50.832;5.590;2023-07-31T12:19:08;19.40;99.90
29849;DHT22;16728;50.832;5.590;2023-07-31T12:22:14;19.50;99.90
29849;DHT22;16728;50.832;5.590;2023-07-31T12:25:16;19.50;99.90
29849;DHT22;16728;50.832;5.590;2023-07-31T12:28:22;19.50;99.90
29849;DHT22;16728;50.832;5.590;2023-07-31T12:31:27;19.40;99.90
29849;DHT22;16728;50.832;5.590;2023-07-31T12:34:30;19.50;99.90
29849;DHT22;16728;50.832;5.590;2023-07-31T12:37:33;19.50;99.90
29849;DHT22;16728;50.832;5.590;2023-07-31T12:40:40;19.60;99.90
29849;DHT22;16728;50.832;5.590;2023-07-31T12:43:43;19.70;99.90
29849;DHT22;16728;50.832;5.590;2023-07-31T12:46:45;19.70;99.90
29849;DHT22;16728;50.832;5.590;2023-07-31T12:49:47;19.80;99.90
29849;DHT22;16728;50.832;5.590;2023-07-31T12:52:49;19.90;99.90
29849;DHT22;16728;50.832;5.590;2023-07-31T12:55:51;20.00;99.90
29849;DHT22;16728;50.832;5.590;2023-07-31T12:58:53;20.10;99.90
29849;DHT22;16728;50.832;5.590;2023-07-31T13:01:55;20.20;99.90
29849;DHT22;16728;50.832;5.590;2023-07-31T13:04:57;20.20;99.90
29849;DHT22;16728;50.832;5.590;2023-07-31T13:07:59;20.10;99.90
29849;DHT22;16728;50.832;5.590;2023-07-31T13:11:01;20.10;99.90
29849;DHT22;16728;50.832;5.590;2023-07-31T13:14:03;20.10;99.90
29849;DHT22;16728;50.832;5.590;2023-07-31T13:17:05;20.10;99.90
29849;DHT22;16728;50.832;5.590;2023-07-31T13:20:08;20.00;99.90
29849;DHT22;16728;50.832;5.590;2023-07-31T13:23:10;20.10;99.90
29849;DHT22;16728;50.832;5.590;2023-07-31T13:26:13;20.00;99.90
29849;DHT22;16728;50.832;5.590;2023-07-31T13:29:14;20.00;99.90
29849;DHT22;16728;50.832;5.590;2023-07-31T13:32:17;20.00;99.90
29849;DHT22;16728;50.832;5.590;2023-07-31T13:35:19;19.90;99.90
29849;DHT22;16728;50.832;5.590;2023-07-31T13:38:21;19.90;99.90
29849;DHT22;16728;50.832;5.590;2023-07-31T13:41:23;19.90;99.90
29849;DHT22;16728;50.832;5.590;2023-07-31T13:44:25;19.90;99.90
29849;DHT22;16728;50.832;5.590;2023-07-31T13:47:27;20.00;99.90
29849;DHT22;16728;50.832;5.590;2023-07-31T13:50:29;20.10;99.90
29849;DHT22;16728;50.832;5.590;2023-07-31T13:53:31;20.20;99.90
29849;DHT22;16728;50.832;5.590;2023-07-31T13:56:33;20.30;99.90
29849;DHT22;16728;50.832;5.590;2023-07-31T13:59:35;20.20;99.90
29849;DHT22;16728;50.832;5.590;2023-07-31T14:02:37;20.20;99.90
29849;DHT22;16728;50.832;5.590;2023-07-31T14:05:39;20.20;99.90
29849;DHT22;16728;50.832;5.590;2023-07-31T14:08:41;20.20;99.90
29849;DHT22;16728;50.832;5.590;2023-07-31T14:11:43;20.10;99.90
29849;DHT22;16728;50.832;5.590;2023-07-31T14:14:45;20.10;99.90
29849;DHT22;16728;50.832;5.590;2023-07-31T14:17:46;20.00;99.90
29849;DHT22;16728;50.832;5.590;2023-07-31T14:20:49;20.00;99.90
29849;DHT22;16728;50.832;5.590;2023-07-31T14:23:52;19.90;99.90
29849;DHT22;16728;50.832;5.590;2023-07-31T14:26:54;20.00;99.90
29849;DHT22;16728;50.832;5.590;2023-07-31T14:29:56;19.90;99.90
29849;DHT22;16728;50.832;5.590;2023-07-31T14:32:58;19.90;99.90
29849;DHT22;16728;50.832;5.590;2023-07-31T14:36:02;19.80;99.90
29849;DHT22;16728;50.832;5.590;2023-07-31T14:39:04;19.80;99.90
29849;DHT22;16728;50.832;5.590;2023-07-31T14:42:06;19.80;99.90
29849;DHT22;16728;50.832;5.590;2023-07-31T14:45:09;19.60;99.90
29849;DHT22;16728;50.832;5.590;2023-07-31T14:48:12;19.50;99.90
29849;DHT22;16728;50.832;5.590;2023-07-31T14:51:13;19.50;99.90
29849;DHT22;16728;50.832;5.590;2023-07-31T14:54:16;19.40;99.90
29849;DHT22;16728;50.832;5.590;2023-07-31T14:57:18;19.30;99.90
29849;DHT22;16728;50.832;5.590;2023-07-31T15:00:20;19.20;99.90
29849;DHT22;16728;50.832;5.590;2023-07-31T15:03:22;19.20;99.90
29849;DHT22;16728;50.832;5.590;2023-07-31T15:06:26;19.10;99.90
29849;DHT22;16728;50.832;5.590;2023-07-31T15:09:28;19.10;99.90
29849;DHT22;16728;50.832;5.590;2023-07-31T15:12:30;19.10;99.90
29849;DHT22;16728;50.832;5.590;2023-07-31T15:15:33;19.10;99.90
29849;DHT22;16728;50.832;5.590;2023-07-31T15:18:35;19.00;99.90
29849;DHT22;16728;50.832;5.590;2023-07-31T15:21:37;18.90;99.90
29849;DHT22;16728;50.832;5.590;2023-07-31T15:24:39;18.90;99.90
29849;DHT22;16728;50.832;5.590;2023-07-31T15:27:42;18.90;99.90
29849;DHT22;16728;50.832;5.590;2023-07-31T15:30:44;18.80;99.90
29849;DHT22;16728;50.832;5.590;2023-07-31T15:33:46;18.90;99.90
29849;DHT22;16728;50.832;5.590;2023-07-31T15:36:48;18.80;99.90
29849;DHT22;16728;50.832;5.590;2023-07-31T15:39:50;18.90;99.90
29849;DHT22;16728;50.832;5.590;2023-07-31T15:42:52;18.80;99.90
29849;DHT22;16728;50.832;5.590;2023-07-31T15:45:54;18.80;99.90
29849;DHT22;16728;50.832;5.590;2023-07-31T15:48:56;18.80;99.90
29849;DHT22;16728;50.832;5.590;2023-07-31T15:51:58;18.80;99.90
29849;DHT22;16728;50.832;5.590;2023-07-31T15:55:00;18.80;99.90
29849;DHT22;16728;50.832;5.590;2023-07-31T15:58:02;18.80;99.90
29849;DHT22;16728;50.832;5.590;2023-07-31T16:01:04;18.80;99.90
29849;DHT22;16728;50.832;5.590;2023-07-31T16:04:06;18.80;99.90
29849;DHT22;16728;50.832;5.590;2023-07-31T16:07:08;18.80;99.90
29849;DHT22;16728;50.832;5.590;2023-07-31T16:10:10;18.80;99.90
29849;DHT22;16728;50.832;5.590;2023-07-31T16:13:12;18.80;99.90
29849;DHT22;16728;50.832;5.590;2023-07-31T16:16:14;18.80;99.90
29849;DHT22;16728;50.832;5.590;2023-07-31T16:19:16;18.80;99.90
29849;DHT22;16728;50.832;5.590;2023-07-31T16:22:18;18.70;99.90
29849;DHT22;16728;50.832;5.590;2023-07-31T16:25:20;18.60;99.90
29849;DHT22;16728;50.832;5.590;2023-07-31T16:28:22;18.60;99.90
29849;DHT22;16728;50.832;5.590;2023-07-31T16:31:25;18.60;99.90
29849;DHT22;16728;50.832;5.590;2023-07-31T16:34:27;18.60;99.90
29849;DHT22;16728;50.832;5.590;2023-07-31T16:37:29;18.60;99.90
29849;DHT22;16728;50.832;5.590;2023-07-31T16:40:31;18.60;99.90
29849;DHT22;16728;50.832;5.590;2023-07-31T16:43:33;18.60;99.90
29849;DHT22;16728;50.832;5.590;2023-07-31T16:46:35;18.60;99.90
29849;DHT22;16728;50.832;5.590;2023-07-31T16:49:37;18.50;99.90
29849;DHT22;16728;50.832;5.590;2023-07-31T16:52:40;18.50;99.90
29849;DHT22;16728;50.832;5.590;2023-07-31T16:55:41;18.50;99.90
29849;DHT22;16728;50.832;5.590;2023-07-31T16:58:43;18.50;99.90
29849;DHT22;16728;50.832;5.590;2023-07-31T17:01:46;18.40;99.90
29849;DHT22;16728;50.832;5.590;2023-07-31T17:04:48;18.50;99.90
29849;DHT22;16728;50.832;5.590;2023-07-31T17:07:50;18.50;99.90
29849;DHT22;16728;50.832;5.590;2023-07-31T17:10:52;18.50;99.90
29849;DHT22;16728;50.832;5.590;2023-07-31T17:13:54;18.40;99.90
29849;DHT22;16728;50.832;5.590;2023-07-31T17:16:56;18.50;99.90
29849;DHT22;16728;50.832;5.590;2023-07-31T17:19:58;18.50;99.90
29849;DHT22;16728;50.832;5.590;2023-07-31T17:23:00;18.50;99.90
29849;DHT22;16728;50.832;5.590;2023-07-31T17:26:02;18.40;99.90
29849;DHT22;16728;50.832;5.590;2023-07-31T17:29:05;18.40;99.90
29849;DHT22;16728;50.832;5.590;2023-07-31T17:32:07;18.40;99.90
29849;DHT22;16728;50.832;5.590;2023-07-31T17:35:09;18.40;99.90
29849;DHT22;16728;50.832;5.590;2023-07-31T17:38:11;18.40;99.90
29849;DHT22;16728;50.832;5.590;2023-07-31T17:41:13;18.40;99.90
29849;DHT22;16728;50.832;5.590;2023-07-31T17:44:15;18.40;99.90
29849;DHT22;16728;50.832;5.590;2023-07-31T17:47:17;18.40;99.90
29849;DHT22;16728;50.832;5.590;2023-07-31T17:50:20;18.30;99.90
29849;DHT22;16728;50.832;5.590;2023-07-31T17:53:22;18.40;99.90
29849;DHT22;16728;50.832;5.590;2023-07-31T17:56:24;18.40;99.90
29849;DHT22;16728;50.832;5.590;2023-07-31T17:59:26;18.30;99.90
29849;DHT22;16728;50.832;5.590;2023-07-31T18:02:28;18.40;99.90
29849;DHT22;16728;50.832;5.590;2023-07-31T18:05:31;18.40;99.90
29849;DHT22;16728;50.832;5.590;2023-07-31T18:08:33;18.30;99.90
29849;DHT22;16728;50.832;5.590;2023-07-31T18:11:35;18.40;99.90
29849;DHT22;16728;50.832;5.590;2023-07-31T18:14:36;18.40;99.90
29849;DHT22;16728;50.832;5.590;2023-07-31T18:17:41;18.40;99.90
29849;DHT22;16728;50.832;5.590;2023-07-31T18:20:42;18.30;99.90
29849;DHT22;16728;50.832;5.590;2023-07-31T18:23:44;18.30;99.90
29849;DHT22;16728;50.832;5.590;2023-07-31T18:26:47;18.30;99.90
29849;DHT22;16728;50.832;5.590;2023-07-31T18:29:48;18.30;99.90
29849;DHT22;16728;50.832;5.590;2023-07-31T18:32:50;18.30;99.90
29849;DHT22;16728;50.832;5.590;2023-07-31T18:35:53;18.30;99.90
29849;DHT22;16728;50.832;5.590;2023-07-31T18:38:56;18.30;99.90
29849;DHT22;16728;50.832;5.590;2023-07-31T18:41:59;18.30;99.90
29849;DHT22;16728;50.832;5.590;2023-07-31T18:45:01;18.30;99.90
29849;DHT22;16728;50.832;5.590;2023-07-31T18:48:03;18.30;99.90
29849;DHT22;16728;50.832;5.590;2023-07-31T18:51:05;18.30;99.90
29849;DHT22;16728;50.832;5.590;2023-07-31T18:54:07;18.20;99.90
29849;DHT22;16728;50.832;5.590;2023-07-31T18:57:09;18.30;99.90
29849;DHT22;16728;50.832;5.590;2023-07-31T19:00:11;18.30;99.90
29849;DHT22;16728;50.832;5.590;2023-07-31T19:03:13;18.30;99.90
29849;DHT22;16728;50.832;5.590;2023-07-31T19:06:15;18.30;99.90
29849;DHT22;16728;50.832;5.590;2023-07-31T19:09:30;18.30;99.90
29849;DHT22;16728;50.832;5.590;2023-07-31T19:12:33;18.30;99.90
29849;DHT22;16728;50.832;5.590;2023-07-31T19:15:36;18.30;99.90
29849;DHT22;16728;50.832;5.590;2023-07-31T19:18:39;18.30;99.90
29849;DHT22;16728;50.832;5.590;2023-07-31T19:21:41;18.30;99.90
29849;DHT22;16728;50.832;5.590;2023-07-31T19:24:44;18.30;99.90
29849;DHT22;16728;50.832;5.590;2023-07-31T19:27:47;18.30;99.90